Aberdaron, United Kingdom
Current Conditions -  °F | °C
As of 1:50 AM on Sunday 21 Dec 2014 (Local Time) from EGOV Reporting Station
Broken Clouds Broken Clouds  
Wind Chill: 41°   Ceiling: 3100
Heat Index: 48°   Visibility: 6mi
Dew Point: 37°   Wind: 23mph
Humidity: 66%   Direction: 230°SW
Pressure: 30.33"   Gusts: NA
Location:  52.78°N, 4.73°W
Report Text: EGOV 210150Z AUTO 23020KT 9999 FEW027/// BKN031/// 09/03 Q1027
Loading
Personal Weather Stations






























Interactive Weather Map New forecast layout! Learn more

10-Day Weather Forecast

Advertisements
Track Severe Weather on mobile